Time;durP1;ratioP1;P1;durP2;ratioP2;P2;SDS_P1;SDS_P2;PMS_P1;PMS_P2;Temp;Humidity;BMP_temperature;BMP_pressure;BME280_temperature;BME280_humidity;BME280_pressure;Samples;Min_cycle;Max_cycle;Signal;HPM_P1;HPM_P2
2022/05/24 00:00:38;;;;;;;1.33;1.20;;;;;;;19.25;50.47;95727.22;10197815;29;20060;-81
2022/05/24 00:05:58;;;;;;;1.30;1.20;;;;;;;19.26;50.44;95739.56;10180441;29;20515;-82
2022/05/24 00:11:18;;;;;;;2.97;1.27;;;;;;;19.25;50.31;95740.72;10168496;29;20063;-81
2022/05/24 00:16:38;;;;;;;1.10;1.00;;;;;;;19.25;50.44;95745.31;10170385;29;20059;-81
2022/05/24 00:21:57;;;;;;;1.00;1.00;;;;;;;19.25;50.40;95740.72;10196221;29;20454;-81
2022/05/24 00:27:16;;;;;;;1.10;1.10;;;;;;;19.25;50.48;95738.00;10159268;29;20077;-81
2022/05/24 00:32:36;;;;;;;1.25;1.15;;;;;;;19.25;50.48;95738.00;10181964;29;20063;-81
2022/05/24 00:37:55;;;;;;;1.40;1.30;;;;;;;19.25;50.48;95739.91;10192589;29;20068;-81
2022/05/24 00:43:30;;;;;;;1.08;1.08;;;;;;;19.25;50.53;95729.09;10182591;29;20447;-81
2022/05/24 00:48:54;;;;;;;1.20;1.10;;;;;;;19.25;50.55;95727.22;10189618;29;20048;-81
2022/05/24 00:54:14;;;;;;;1.42;1.00;;;;;;;19.25;50.55;95727.22;10182525;29;20052;-81
2022/05/24 00:59:40;;;;;;;1.00;1.00;;;;;;;19.25;50.53;95721.81;10184317;29;20056;-81
2022/05/24 01:05:00;;;;;;;1.40;1.30;;;;;;;19.24;50.64;95722.16;10181161;29;20052;-81
2022/05/24 01:10:36;;;;;;;1.17;1.05;;;;;;;19.25;50.67;95710.22;10183021;29;20056;-81
2022/05/24 01:15:56;;;;;;;1.15;1.05;;;;;;;19.24;50.75;95704.03;10182670;29;20079;-81
2022/05/24 01:21:17;;;;;;;1.33;1.23;;;;;;;19.25;50.72;95710.22;10193727;29;20052;-81
2022/05/24 01:26:45;;;;;;;1.60;1.27;;;;;;;19.25;50.60;95707.50;10177345;29;20054;-81
2022/05/24 01:37:44;;;;;;;;;;;;;;;19.24;50.68;95716.75;10163132;29;20057;-81
2022/05/24 01:43:04;;;;;;;1.20;1.10;;;;;;;19.24;50.73;95711.34;10192971;29;19923;-81
2022/05/24 01:48:27;;;;;;;1.20;1.10;;;;;;;19.24;50.72;95708.66;10191263;29;20514;-81
2022/05/24 01:53:50;;;;;;;1.20;1.10;;;;;;;19.24;50.75;95711.34;10169139;29;20485;-81
2022/05/24 01:59:09;;;;;;;1.20;1.10;;;;;;;19.23;50.56;95713.28;10168341;29;20097;-81
2022/05/24 02:04:32;;;;;;;1.20;1.10;;;;;;;19.24;50.72;95716.75;10170094;29;20108;-81
2022/05/24 02:09:55;;;;;;;1.55;1.10;;;;;;;19.23;50.67;95717.88;10177173;29;20056;-81
2022/05/24 02:15:17;;;;;;;1.30;1.13;;;;;;;19.24;50.63;95722.16;10174015;29;20102;-81
2022/05/24 02:20:40;;;;;;;1.50;1.10;;;;;;;19.23;50.57;95721.38;10179062;29;20052;-81
2022/05/24 02:26:00;;;;;;;1.38;1.10;;;;;;;19.25;50.68;95734.50;10194270;29;20056;-81
2022/05/24 02:31:20;;;;;;;1.30;1.17;;;;;;;19.23;50.75;95732.19;10165709;29;20051;-81
2022/05/24 02:36:40;;;;;;;1.20;1.10;;;;;;;19.24;50.73;95738.34;10178627;29;20492;-81
2022/05/24 02:42:00;;;;;;;1.00;1.00;;;;;;;19.23;50.73;95731.38;10178630;29;20499;-81
2022/05/24 02:47:19;;;;;;;1.10;1.00;;;;;;;19.22;50.73;95727.91;10193071;29;20048;-81
2022/05/24 02:52:40;;;;;;;1.02;1.02;;;;;;;19.23;50.64;95726.78;10194599;29;20066;-81
2022/05/24 02:58:00;;;;;;;1.27;1.02;;;;;;;19.24;50.79;95739.13;10188891;29;20060;-81
2022/05/24 03:03:19;;;;;;;1.05;1.05;;;;;;;19.23;50.81;95742.19;10181234;29;20063;-81
2022/05/24 03:14:18;;;;;;;0.87;0.87;;;;;;;19.23;50.80;95755.69;10180206;29;20056;-81
2022/05/24 03:19:37;;;;;;;1.08;0.93;;;;;;;19.24;50.84;95749.16;10188590;29;20076;-82
2022/05/24 03:24:57;;;;;;;0.90;0.90;;;;;;;19.23;50.88;95752.97;10176249;29;20436;-81
2022/05/24 03:30:18;;;;;;;1.60;0.90;;;;;;;19.23;50.86;95748.38;10178561;29;20072;-81
2022/05/24 03:35:38;;;;;;;1.00;1.00;;;;;;;19.24;50.87;95751.84;10184197;29;20052;-81
2022/05/24 03:40:58;;;;;;;1.35;1.08;;;;;;;19.25;50.75;95750.72;10184368;29;20060;-81
2022/05/24 03:46:17;;;;;;;1.25;1.10;;;;;;;19.24;50.76;95749.16;10198586;29;20048;-81
2022/05/24 03:51:37;;;;;;;1.30;1.20;;;;;;;19.25;50.85;95748.00;10186564;29;20415;-81
2022/05/24 04:02:34;;;;;;;1.25;1.05;;;;;;;19.26;50.87;95755.78;10197280;29;20047;-81
2022/05/24 04:07:54;;;;;;;1.10;1.10;;;;;;;19.30;50.83;95772.06;10197014;29;20051;-82
2022/05/24 04:13:13;;;;;;;0.93;0.93;;;;;;;19.33;51.05;95766.75;10175089;29;20067;-82
2022/05/24 04:18:33;;;;;;;2.47;0.90;;;;;;;19.35;51.18;95767.19;10154218;29;20048;-82
2022/05/24 04:23:53;;;;;;;1.20;1.15;;;;;;;19.37;50.98;95764.16;10190777;29;20427;-82
2022/05/24 04:29:12;;;;;;;1.40;1.30;;;;;;;19.39;50.75;95775.41;10174867;29;20060;-82
2022/05/24 04:34:32;;;;;;;1.38;1.27;;;;;;;19.38;50.97;95778.44;10171407;29;20420;-82
2022/05/24 04:39:51;;;;;;;1.90;1.33;;;;;;;19.38;51.00;95784.63;10177429;29;20525;-82
2022/05/24 04:45:14;;;;;;;1.20;1.10;;;;;;;19.40;51.39;95790.44;10181072;29;20052;-82
2022/05/24 04:50:34;;;;;;;1.63;1.20;;;;;;;19.42;51.59;95793.59;10171314;29;20048;-82
2022/05/24 04:55:54;;;;;;;1.55;1.30;;;;;;;19.41;51.67;95799.38;10180863;29;20331;-81
2022/05/24 05:01:13;;;;;;;1.23;1.13;;;;;;;19.41;51.63;95796.66;10173853;29;20056;-82
2022/05/24 05:06:33;;;;;;;1.40;1.30;;;;;;;19.40;51.87;95793.16;10186112;29;20108;-82
2022/05/24 05:11:52;;;;;;;3.10;1.50;;;;;;;19.40;51.84;95803.19;10176097;29;20060;-81
2022/05/24 05:17:12;;;;;;;2.80;1.52;;;;;;;19.39;51.84;95798.94;10151607;29;20062;-81
2022/05/24 05:22:31;;;;;;;6.47;2.00;;;;;;;19.36;53.28;95795.75;10176784;29;20048;-82
2022/05/24 05:27:51;;;;;;;4.60;2.55;;;;;;;19.29;53.31;95790.19;10178209;29;20048;-81
2022/05/24 05:33:11;;;;;;;12.60;4.57;;;;;;;19.29;52.78;95792.13;10194457;29;20422;-82
2022/05/24 05:38:31;;;;;;;17.45;5.30;;;;;;;19.29;52.63;95800.22;10185614;29;20055;-82
2022/05/24 05:43:50;;;;;;;24.10;5.93;;;;;;;19.30;52.69;95815.28;10187436;29;20044;-81
2022/05/24 05:49:11;;;;;;;11.68;5.25;;;;;;;19.30;52.49;95809.88;10188089;29;20547;-82
2022/05/24 05:54:31;;;;;;;13.98;5.38;;;;;;;19.30;52.61;95817.97;10186494;29;20054;-81
2022/05/24 05:59:52;;;;;;;11.15;4.03;;;;;;;19.30;52.47;95816.06;10179477;29;20051;-81
2022/05/24 06:05:12;;;;;;;10.73;3.20;;;;;;;19.31;52.56;95824.97;10178799;29;20052;-81
2022/05/24 06:10:34;;;;;;;7.88;3.40;;;;;;;19.31;52.67;95831.13;10183386;29;20063;-81
2022/05/24 06:15:55;;;;;;;5.38;2.88;;;;;;;19.30;52.72;95843.06;10200583;29;20062;-81
2022/05/24 06:21:14;;;;;;;6.82;3.00;;;;;;;19.31;52.78;95835.75;10189742;29;20093;-82
2022/05/24 06:26:34;;;;;;;4.50;2.55;;;;;;;19.31;52.79;95847.34;10165039;29;20044;-81
2022/05/24 06:31:54;;;;;;;6.35;2.67;;;;;;;19.32;52.70;95854.28;10193215;29;20059;-81
2022/05/24 06:37:13;;;;;;;5.32;2.83;;;;;;;19.32;52.74;95861.63;10189962;29;20063;-81
2022/05/24 06:42:34;;;;;;;6.82;2.58;;;;;;;19.33;52.85;95863.97;10174276;29;20055;-81
2022/05/24 06:47:53;;;;;;;5.88;2.75;;;;;;;19.31;52.98;95863.53;10188107;29;20194;-82
2022/05/24 06:53:13;;;;;;;6.72;2.90;;;;;;;19.32;52.89;95854.28;10170966;29;20191;-82
2022/05/24 06:58:34;;;;;;;6.63;2.80;;;;;;;19.33;53.01;95849.69;10181815;29;20074;-82
2022/05/24 07:03:54;;;;;;;5.85;2.40;;;;;;;19.32;52.92;95857.00;10172370;29;20075;-82
2022/05/24 07:09:17;;;;;;;6.05;2.65;;;;;;;19.34;52.85;95862.06;10175010;29;20052;-81
2022/05/24 07:14:37;;;;;;;3.35;2.20;;;;;;;19.34;52.92;95878.25;10187067;29;20108;-81
2022/05/24 07:19:56;;;;;;;2.75;1.90;;;;;;;19.33;52.93;95876.72;10172805;29;20059;-82
2022/05/24 07:25:16;;;;;;;5.50;1.90;;;;;;;19.33;52.95;95887.50;10158212;29;20103;-82
2022/05/24 07:30:38;;;;;;;3.63;1.98;;;;;;;19.32;53.14;95886.69;10159658;29;20523;-82
2022/05/24 07:35:57;;;;;;;2.70;1.88;;;;;;;19.33;53.11;95888.28;10176429;29;20059;-82
2022/05/24 07:46:56;;;;;;;3.17;1.83;;;;;;;19.33;53.29;95906.41;10171146;29;20052;-82
2022/05/24 07:52:15;;;;;;;2.90;2.03;;;;;;;19.33;53.27;95907.19;10177506;29;20059;-82
2022/05/24 07:57:34;;;;;;;2.72;1.70;;;;;;;19.33;53.41;95911.81;10178057;29;20048;-83
2022/05/24 08:02:53;;;;;;;2.58;1.85;;;;;;;19.34;53.31;95905.28;10177726;29;20263;-83
2022/05/24 08:08:14;;;;;;;3.65;1.85;;;;;;;19.32;53.55;95907.53;10191317;29;20060;-82
2022/05/24 08:13:35;;;;;;;1.92;1.63;;;;;;;19.34;53.59;95926.88;10180233;29;20047;-82
2022/05/24 08:18:54;;;;;;;2.33;1.70;;;;;;;19.33;53.63;95942.31;10175838;29;20080;-82
2022/05/24 08:24:16;;;;;;;2.95;1.60;;;;;;;19.34;53.77;95932.28;10191694;29;20413;-83
2022/05/24 08:29:36;;;;;;;2.38;1.52;;;;;;;19.35;53.78;95917.66;10173229;29;20397;-83
2022/05/24 08:34:56;;;;;;;3.42;1.80;;;;;;;19.34;53.66;95918.78;10170576;29;20048;-83
2022/05/24 08:40:18;;;;;;;2.72;1.63;;;;;;;19.35;53.77;95923.06;10156647;29;20072;-83
2022/05/24 08:51:46;;;;;;;2.13;1.65;;;;;;;19.36;54.00;95935.41;10171581;29;20060;-83
2022/05/24 08:57:09;;;;;;;1.45;1.35;;;;;;;19.35;54.00;95934.63;10172483;29;20059;-83
2022/05/24 09:02:29;;;;;;;2.45;1.65;;;;;;;19.36;53.77;95932.72;10172998;29;20052;-83
2022/05/24 09:07:58;;;;;;;2.72;1.45;;;;;;;19.35;54.05;95934.63;10162918;29;20526;-83
2022/05/24 09:13:26;;;;;;;;;;;;;;;19.35;54.14;95934.63;10161378;29;20411;-83
2022/05/24 09:18:55;;;;;;;1.58;1.48;;;;;;;19.38;53.89;95943.19;10163090;29;19938;-83
2022/05/24 09:24:17;;;;;;;1.92;1.50;;;;;;;19.36;54.05;95932.72;10184327;29;20072;-83
2022/05/24 09:30:07;;;;;;;1.50;1.40;;;;;;;19.38;54.05;95937.78;10170557;29;20397;-83
2022/05/24 09:35:27;;;;;;;1.52;1.40;;;;;;;19.37;54.01;95947.81;10184571;29;20048;-83
2022/05/24 09:41:09;;;;;;;1.95;1.50;;;;;;;19.37;53.99;95953.22;10184743;29;20518;-83
2022/05/24 09:46:30;;;;;;;2.58;1.33;;;;;;;19.37;53.93;95958.59;10172615;29;20610;-83
2022/05/24 09:51:54;;;;;;;1.33;1.10;;;;;;;19.36;54.12;95968.59;10173682;29;20060;-82
2022/05/24 09:57:25;;;;;;;2.95;1.30;;;;;;;19.35;54.04;95964.34;10175806;29;20074;-83
2022/05/24 10:02:45;;;;;;;1.35;1.13;;;;;;;19.36;54.07;95971.31;10159410;29;20492;-82
2022/05/24 10:08:13;;;;;;;2.08;1.35;;;;;;;19.36;54.01;95989.44;10183462;29;20099;-82
2022/05/24 10:13:46;;;;;;;1.47;1.30;;;;;;;19.36;54.14;95990.22;10182328;29;20071;-83
2022/05/24 10:19:34;;;;;;;2.85;1.30;;;;;;;19.37;54.20;95988.31;10168623;29;20429;-82
2022/05/24 10:24:56;;;;;;;1.60;1.30;;;;;;;19.36;54.23;95994.84;10178478;29;20127;-82
2022/05/24 10:30:31;;;;;;;2.50;1.30;;;;;;;19.38;54.23;95997.97;10154041;29;20052;-82
2022/05/24 10:42:17;;;;;;;1.85;1.27;;;;;;;19.38;54.36;96011.47;10134783;29;20088;-82
2022/05/24 10:47:44;;;;;;;1.50;1.17;;;;;;;19.38;54.40;96022.28;10147557;29;20543;-83
2022/05/24 10:53:05;;;;;;;1.40;1.30;;;;;;;19.38;54.53;96027.69;10146700;29;20056;-82
2022/05/24 10:58:25;;;;;;;1.42;1.33;;;;;;;19.38;54.44;96025.00;10157670;29;20393;-82
2022/05/24 11:03:48;;;;;;;1.45;1.35;;;;;;;19.38;54.65;96033.09;10148914;29;20810;-82
2022/05/24 11:09:09;;;;;;;1.88;1.38;;;;;;;19.39;54.73;96025.78;10170743;29;20061;-82
2022/05/24 11:14:48;;;;;;;5.97;1.50;;;;;;;19.40;54.90;96038.16;10147332;29;20557;-82
2022/05/24 11:20:09;;;;;;;5.97;1.70;;;;;;;19.39;55.14;96040.06;10166231;29;20056;-82
2022/05/24 11:25:35;;;;;;;4.00;1.70;;;;;;;19.40;55.25;96055.13;10161343;29;20056;-82
2022/05/24 11:31:19;;;;;;;4.05;1.80;;;;;;;19.41;55.59;96056.72;10170043;29;20518;-83
2022/05/24 11:36:45;;;;;;;3.55;1.48;;;;;;;19.40;55.82;96063.25;10167807;29;20051;-83
2022/05/24 11:42:32;;;;;;;2.85;1.70;;;;;;;19.41;56.28;96064.84;10168699;29;20099;-83
2022/05/24 11:48:01;;;;;;;2.72;1.50;;;;;;;19.41;56.53;96072.16;10166764;29;20052;-82
2022/05/24 11:53:39;;;;;;;1.85;1.60;;;;;;;19.41;56.85;96069.44;10170868;29;20052;-84
2022/05/24 11:59:14;;;;;;;2.47;1.60;;;;;;;19.42;56.76;96079.13;10175499;29;20108;-83
2022/05/24 12:10:55;;;;;;;2.63;1.70;;;;;;;19.42;56.93;96085.28;10154716;29;20076;-84
2022/05/24 12:16:40;;;;;;;1.63;1.50;;;;;;;19.42;57.22;96095.31;10148003;29;20052;-84
2022/05/24 12:22:04;;;;;;;2.38;1.80;;;;;;;19.42;57.15;96084.53;10173373;29;20048;-84
2022/05/24 12:27:47;;;;;;;2.60;1.70;;;;;;;19.42;57.23;96090.69;10185597;29;20083;-83
2022/05/24 12:33:35;;;;;;;3.38;1.80;;;;;;;19.42;57.55;96096.09;10172858;29;20066;-83
2022/05/24 12:39:07;;;;;;;2.63;1.80;;;;;;;19.42;57.69;96106.91;10162019;29;20048;-84
2022/05/24 12:44:26;;;;;;;3.40;1.52;;;;;;;19.43;57.76;96113.13;10189735;29;20484;-84
2022/05/24 12:49:49;;;;;;;2.40;1.90;;;;;;;19.43;57.71;96121.22;10185314;29;20059;-84
2022/05/24 12:55:54;;;;;;;2.33;1.65;;;;;;;19.43;58.00;96134.72;10182629;29;20056;-84
2022/05/24 13:01:28;;;;;;;2.47;1.92;;;;;;;19.42;58.19;96139.31;10144760;29;20063;-84
2022/05/24 13:06:51;;;;;;;2.15;1.80;;;;;;;19.41;58.49;96151.25;10170928;29;20104;-84
2022/05/24 13:12:11;;;;;;;3.08;2.05;;;;;;;19.41;58.20;96164.78;10150090;29;20063;-84
2022/05/24 13:17:38;;;;;;;2.78;1.88;;;;;;;19.41;58.45;96164.78;10160930;29;20052;-84
2022/05/24 13:23:13;;;;;;;2.55;1.90;;;;;;;19.40;58.57;96171.28;10162569;29;20051;-84
2022/05/24 13:28:33;;;;;;;2.95;1.80;;;;;;;19.41;58.56;96175.56;10186730;29;20499;-84
2022/05/24 13:33:54;;;;;;;1.60;1.50;;;;;;;19.39;58.69;96177.81;10163217;29;20052;-84
2022/05/24 13:39:35;;;;;;;3.50;1.80;;;;;;;19.39;58.75;96177.81;10154940;29;20080;-84
2022/05/24 13:45:16;;;;;;;2.55;1.50;;;;;;;19.39;58.77;96183.22;10150956;29;20424;-84
2022/05/24 13:50:40;;;;;;;2.53;1.50;;;;;;;19.39;58.83;96185.16;10153318;29;20060;-85
2022/05/24 13:56:03;;;;;;;1.75;1.17;;;;;;;19.37;58.83;96190.88;10158484;29;20443;-84
2022/05/24 14:01:41;;;;;;;1.52;1.38;;;;;;;19.37;58.70;96201.69;10187739;29;20055;-84
2022/05/24 14:07:00;;;;;;;1.30;1.20;;;;;;;19.37;58.45;96196.28;10181079;29;20048;-84
2022/05/24 14:12:20;;;;;;;1.38;1.10;;;;;;;19.36;58.50;96194.69;10153889;29;20040;-84
2022/05/24 14:17:39;;;;;;;2.60;1.08;;;;;;;19.34;58.35;96200.44;10147550;29;20471;-84
2022/05/24 14:22:58;;;;;;;1.48;1.20;;;;;;;19.34;58.37;96196.94;10157686;29;20107;-84
2022/05/24 14:28:19;;;;;;;2.20;1.33;;;;;;;19.34;58.19;96199.66;10143461;29;20055;-84
2022/05/24 14:33:39;;;;;;;1.83;1.00;;;;;;;19.34;58.31;96186.16;10179398;29;20060;-84
2022/05/24 14:38:59;;;;;;;1.17;1.08;;;;;;;19.34;58.14;96176.13;10170937;29;20074;-84
2022/05/24 14:44:26;;;;;;;1.38;0.88;;;;;;;19.33;58.26;96179.97;10146233;29;20056;-84
2022/05/24 14:49:46;;;;;;;2.25;0.93;;;;;;;19.33;58.45;96174.56;10143114;29;20452;-84
2022/05/24 14:55:07;;;;;;;2.05;1.10;;;;;;;19.32;58.40;96172.97;10152414;29;20475;-84
2022/05/24 15:00:26;;;;;;;1.55;1.00;;;;;;;19.31;58.68;96171.41;10163233;29;20095;-84
2022/05/24 15:05:45;;;;;;;5.55;1.73;;;;;;;19.31;58.95;96189.53;10166178;29;20048;-84
2022/05/24 15:16:49;;;;;;;1.07;0.80;;;;;;;19.23;59.63;96207.41;10170976;29;20075;-84
2022/05/24 15:22:08;;;;;;;1.45;1.10;;;;;;;19.20;59.59;96210.00;10173443;29;20056;-83
2022/05/24 15:27:28;;;;;;;1.05;0.85;;;;;;;19.17;59.83;96220.34;10166724;29;20052;-83
2022/05/24 15:32:49;;;;;;;1.60;0.88;;;;;;;19.12;59.94;96225.16;10202887;29;20068;-83
2022/05/24 15:38:08;;;;;;;2.45;1.10;;;;;;;19.07;60.02;96207.28;10190339;29;20064;-83
2022/05/24 15:43:28;;;;;;;1.13;1.02;;;;;;;19.06;59.70;96230.00;10171700;29;20072;-83
2022/05/24 15:48:48;;;;;;;2.30;1.05;;;;;;;19.07;59.35;96230.78;10171282;29;20052;-82
2022/05/24 15:54:07;;;;;;;1.08;0.80;;;;;;;19.11;59.01;96247.88;10157836;29;20071;-82
2022/05/24 15:59:27;;;;;;;1.60;0.90;;;;;;;19.13;58.65;96243.75;10204154;29;20056;-82
2022/05/24 16:10:25;;;;;;;2.63;0.88;;;;;;;19.17;58.50;96244.66;10199508;29;20734;-83
2022/05/24 16:15:47;;;;;;;3.83;0.93;;;;;;;19.19;58.49;96247.03;10173103;29;20407;-82
2022/05/24 16:21:07;;;;;;;2.65;1.00;;;;;;;19.20;58.39;96251.28;10183507;29;20064;-82
2022/05/24 16:26:27;;;;;;;1.15;1.00;;;;;;;19.20;58.14;96245.09;10171312;29;20059;-82
2022/05/24 16:31:46;;;;;;;1.90;1.15;;;;;;;19.20;58.26;96240.47;10198060;29;20044;-81
2022/05/24 16:37:06;;;;;;;1.40;1.10;;;;;;;19.20;58.25;96240.47;10197867;29;20048;-82
2022/05/24 16:42:25;;;;;;;1.20;1.10;;;;;;;19.20;58.32;96247.81;10175234;29;20056;-84
2022/05/24 16:47:45;;;;;;;2.28;0.90;;;;;;;19.22;58.35;96275.25;10145167;29;20040;-83
2022/05/24 16:53:18;;;;;;;4.22;1.13;;;;;;;19.22;58.91;96277.97;10185320;29;20076;-84
2022/05/24 16:58:43;;;;;;;2.80;1.08;;;;;;;19.15;60.07;96268.50;10181964;29;20107;-83
2022/05/24 17:04:04;;;;;;;1.88;1.20;;;;;;;19.13;59.96;96273.44;10186425;29;20048;-83
2022/05/24 17:09:24;;;;;;;2.58;1.10;;;;;;;19.15;59.06;96283.88;10182642;29;20066;-83
2022/05/24 17:14:43;;;;;;;2.10;1.10;;;;;;;19.15;58.92;96257.69;10182316;29;20080;-82
2022/05/24 17:20:04;;;;;;;2.70;1.13;;;;;;;19.17;58.63;96268.94;10170399;29;20059;-83
2022/05/24 17:25:23;;;;;;;2.35;1.20;;;;;;;19.16;58.39;96270.06;10179477;29;20117;-83
2022/05/24 17:30:47;;;;;;;3.85;1.10;;;;;;;19.17;58.23;96279.75;10177134;29;20057;-82
2022/05/24 17:36:07;;;;;;;0.93;0.90;;;;;;;19.17;58.59;96282.44;10187626;29;20652;-83
2022/05/24 17:41:27;;;;;;;1.30;0.90;;;;;;;19.17;58.37;96277.06;10180351;29;20059;-83
2022/05/24 17:46:47;;;;;;;1.35;1.00;;;;;;;19.17;58.33;96274.34;10193418;29;20052;-84
2022/05/24 17:52:07;;;;;;;1.45;1.20;;;;;;;19.17;58.42;96273.56;10171750;29;20052;-81
2022/05/24 17:57:26;;;;;;;2.85;1.02;;;;;;;19.17;58.19;96258.16;10200326;29;20056;-81
2022/05/24 18:02:45;;;;;;;1.63;1.02;;;;;;;19.17;58.30;96268.94;10177751;29;20409;-82
2022/05/24 18:08:06;;;;;;;6.18;1.35;;;;;;;19.17;58.10;96266.25;10193184;29;20060;-81
2022/05/24 18:13:26;;;;;;;3.15;1.00;;;;;;;19.19;58.30;96284.00;10177715;29;20055;-82
2022/05/24 18:18:45;;;;;;;2.17;1.05;;;;;;;19.19;58.41;96281.31;10182694;29;20115;-82
2022/05/24 18:24:10;;;;;;;2.63;1.10;;;;;;;19.16;58.95;96285.47;10191265;29;20056;-82
2022/05/24 18:35:15;;;;;;;1.80;1.10;;;;;;;19.16;58.63;96286.25;10201335;29;20083;-82
2022/05/24 18:40:35;;;;;;;0.90;0.90;;;;;;;19.16;58.45;96291.66;10190547;29;20048;-82
2022/05/24 18:45:54;;;;;;;2.70;1.00;;;;;;;19.16;58.37;96305.16;10187245;29;20048;-83
2022/05/24 18:51:14;;;;;;;1.00;0.90;;;;;;;19.17;58.68;96309.44;10187179;29;20122;-81
2022/05/24 18:56:33;;;;;;;4.60;1.00;;;;;;;19.16;58.75;96307.06;10181082;29;20500;-82
2022/05/24 19:01:52;;;;;;;1.95;1.05;;;;;;;19.16;58.89;96315.97;10188758;29;20063;-81
2022/05/24 19:07:18;;;;;;;1.45;1.10;;;;;;;19.15;58.98;96327.91;10202363;29;20123;-81
2022/05/24 19:12:37;;;;;;;1.00;0.90;;;;;;;19.16;58.89;96339.47;10202151;29;20108;-81
2022/05/24 19:17:57;;;;;;;2.95;1.10;;;;;;;19.15;59.19;96352.19;10194843;29;20112;-83
2022/05/24 19:23:16;;;;;;;1.25;0.95;;;;;;;19.13;58.88;96369.84;10202085;29;20123;-84
2022/05/24 19:28:35;;;;;;;2.13;1.30;;;;;;;19.13;58.99;96367.13;10179272;29;20452;-86
2022/05/24 19:33:57;;;;;;;1.70;1.30;;;;;;;19.12;59.02;96371.75;10173506;29;20488;-87
2022/05/24 19:44:57;;;;;;;1.20;1.02;;;;;;;19.13;58.88;96388.72;10173340;29;20475;-88
2022/05/24 19:50:17;;;;;;;1.88;1.40;;;;;;;19.11;59.01;96394.47;10182772;29;20089;-87
2022/05/24 19:55:37;;;;;;;1.67;1.10;;;;;;;19.11;58.91;96399.88;10182267;29;20096;-85
2022/05/24 20:00:56;;;;;;;2.20;1.10;;;;;;;19.12;58.94;96385.25;10152020;29;20056;-84
2022/05/24 20:06:18;;;;;;;1.80;1.10;;;;;;;19.13;59.15;96392.25;10167217;29;20048;-86
2022/05/24 20:11:39;;;;;;;1.20;1.10;;;;;;;19.12;59.06;96389.88;10174455;29;20055;-86
2022/05/24 20:17:00;;;;;;;1.38;1.20;;;;;;;19.12;58.98;96411.47;10161830;29;20122;-84
2022/05/24 20:22:19;;;;;;;1.95;1.23;;;;;;;19.11;59.08;96421.47;10169672;29;20056;-81
2022/05/24 20:27:39;;;;;;;1.10;0.98;;;;;;;19.11;59.10;96426.06;10164672;29;20056;-80
2022/05/24 20:32:59;;;;;;;1.42;1.20;;;;;;;19.11;59.00;96435.00;10183152;29;20048;-81
2022/05/24 20:38:18;;;;;;;1.52;1.23;;;;;;;19.10;59.02;96441.50;10185169;29;20063;-81
2022/05/24 20:43:39;;;;;;;1.25;1.10;;;;;;;19.11;59.03;96453.88;10178989;29;20055;-82
2022/05/24 20:48:59;;;;;;;1.65;1.20;;;;;;;19.11;58.80;96455.78;10180874;29;20048;-81
2022/05/24 20:54:18;;;;;;;1.30;1.20;;;;;;;19.11;59.00;96458.47;10180342;29;20151;-82
2022/05/24 20:59:39;;;;;;;1.17;1.00;;;;;;;19.11;59.08;96461.16;10179709;29;20077;-81
2022/05/24 21:04:59;;;;;;;1.33;1.23;;;;;;;19.10;58.96;96463.09;10161471;29;20110;-81
2022/05/24 21:10:20;;;;;;;1.30;1.10;;;;;;;19.10;59.27;96457.69;10168476;29;20059;-81
2022/05/24 21:15:40;;;;;;;1.88;1.10;;;;;;;19.10;59.09;96456.91;10141266;29;20059;-81
2022/05/24 21:21:00;;;;;;;1.40;1.30;;;;;;;19.11;59.11;96469.28;10162348;29;20455;-81
2022/05/24 21:31:59;;;;;;;;;;;;;;;19.09;59.17;96456.13;10155327;29;20059;-82
2022/05/24 21:37:18;;;;;;;1.15;1.00;;;;;;;19.10;59.14;96457.69;10167552;29;19923;-82
2022/05/24 21:42:37;;;;;;;1.08;0.98;;;;;;;19.11;59.21;96456.59;10155858;29;20056;-82
2022/05/24 21:47:57;;;;;;;2.20;1.20;;;;;;;19.12;59.09;96460.06;10177335;29;20052;-81
2022/05/24 21:53:18;;;;;;;1.55;1.10;;;;;;;19.11;59.16;96462.00;10178251;29;20116;-81
2022/05/24 21:58:38;;;;;;;1.10;1.00;;;;;;;19.13;59.18;96465.16;10193551;29;20048;-82
2022/05/24 22:03:58;;;;;;;2.08;1.17;;;;;;;19.11;59.00;96458.47;10189190;29;20062;-82
2022/05/24 22:09:17;;;;;;;2.35;1.20;;;;;;;19.11;59.09;96461.16;10190957;29;20044;-82
2022/05/24 22:14:37;;;;;;;1.30;1.20;;;;;;;19.09;59.11;96456.13;10192422;29;20087;-82
2022/05/24 22:19:57;;;;;;;2.28;1.10;;;;;;;19.09;59.06;96458.81;10162649;29;20040;-82
2022/05/24 22:25:16;;;;;;;3.42;1.27;;;;;;;19.09;59.11;96466.13;10197527;29;20052;-82
2022/05/24 22:30:36;;;;;;;1.52;1.20;;;;;;;19.08;59.03;96467.25;10194004;29;20052;-82
2022/05/24 22:35:58;;;;;;;1.35;1.20;;;;;;;19.07;58.94;96468.34;10179494;29;20389;-82
2022/05/24 22:41:19;;;;;;;1.33;1.10;;;;;;;19.07;59.06;96462.97;10191843;29;20060;-81
2022/05/24 22:46:41;;;;;;;1.10;1.00;;;;;;;19.07;59.04;96469.16;10192186;29;20514;-81
2022/05/24 22:52:00;;;;;;;1.30;1.08;;;;;;;19.06;59.01;96470.28;10179668;29;20072;-82
2022/05/24 22:57:20;;;;;;;1.05;1.00;;;;;;;19.05;59.00;96471.41;10177261;29;20056;-82
2022/05/24 23:02:40;;;;;;;1.20;1.08;;;;;;;19.05;58.89;96466.00;10163419;29;20131;-82
2022/05/24 23:07:59;;;;;;;1.33;1.20;;;;;;;19.05;58.79;96462.50;10178265;29;20071;-82
2022/05/24 23:13:19;;;;;;;1.13;1.02;;;;;;;19.05;58.83;96460.59;10188585;29;20052;-82
2022/05/24 23:18:38;;;;;;;1.13;1.02;;;;;;;19.04;58.75;96466.31;10176066;29;20044;-82
2022/05/24 23:23:58;;;;;;;1.77;1.20;;;;;;;19.05;59.00;96473.28;10177889;29;20444;-82
2022/05/24 23:29:17;;;;;;;1.40;1.30;;;;;;;19.03;58.64;96468.22;10178079;29;20052;-82
2022/05/24 23:34:38;;;;;;;1.40;1.30;;;;;;;19.04;58.65;96477.13;10178554;29;20052;-82
2022/05/24 23:39:58;;;;;;;1.10;1.00;;;;;;;19.03;58.57;96481.72;10185838;29;20059;-82
2022/05/24 23:45:18;;;;;;;1.17;0.98;;;;;;;19.03;58.47;96470.91;10176079;29;20061;-82
2022/05/24 23:50:37;;;;;;;1.13;1.02;;;;;;;19.02;58.51;96474.75;10180150;29;20052;-82
2022/05/24 23:55:57;;;;;;;1.13;0.90;;;;;;;19.03;58.47;96489.81;10197911;29;20496;-82
